sensor_id;sensor_type;location;lat;lon;timestamp;temperature;humidity
47576;DHT22;33304;52.456;13.328;2023-11-19T00:01:50;4.80;36.40
47576;DHT22;33304;52.456;13.328;2023-11-19T00:04:17;4.80;35.80
47576;DHT22;33304;52.456;13.328;2023-11-19T00:06:45;4.70;36.60
47576;DHT22;33304;52.456;13.328;2023-11-19T00:09:12;4.80;36.90
47576;DHT22;33304;52.456;13.328;2023-11-19T00:11:41;4.80;36.60
47576;DHT22;33304;52.456;13.328;2023-11-19T00:14:08;4.80;36.20
47576;DHT22;33304;52.456;13.328;2023-11-19T00:16:35;4.80;34.60
47576;DHT22;33304;52.456;13.328;2023-11-19T00:19:02;4.80;34.90
47576;DHT22;33304;52.456;13.328;2023-11-19T00:21:30;4.80;34.60
47576;DHT22;33304;52.456;13.328;2023-11-19T00:24:00;4.90;34.10
47576;DHT22;33304;52.456;13.328;2023-11-19T00:26:27;4.90;34.40
47576;DHT22;33304;52.456;13.328;2023-11-19T00:28:56;4.90;33.60
47576;DHT22;33304;52.456;13.328;2023-11-19T00:31:24;5.00;33.40
47576;DHT22;33304;52.456;13.328;2023-11-19T00:33:53;4.90;32.80
47576;DHT22;33304;52.456;13.328;2023-11-19T00:36:20;4.90;33.20
47576;DHT22;33304;52.456;13.328;2023-11-19T00:38:49;5.00;32.60
47576;DHT22;33304;52.456;13.328;2023-11-19T00:41:19;4.90;32.10
47576;DHT22;33304;52.456;13.328;2023-11-19T00:43:47;4.90;32.50
47576;DHT22;33304;52.456;13.328;2023-11-19T00:46:15;4.90;33.20
47576;DHT22;33304;52.456;13.328;2023-11-19T00:48:42;4.90;31.50
47576;DHT22;33304;52.456;13.328;2023-11-19T00:51:11;4.90;32.20
47576;DHT22;33304;52.456;13.328;2023-11-19T00:53:38;5.00;32.20
47576;DHT22;33304;52.456;13.328;2023-11-19T00:56:06;5.00;31.10
47576;DHT22;33304;52.456;13.328;2023-11-19T00:58:35;5.00;30.30
47576;DHT22;33304;52.456;13.328;2023-11-19T01:01:03;5.00;30.50
47576;DHT22;33304;52.456;13.328;2023-11-19T01:03:31;5.00;29.80
47576;DHT22;33304;52.456;13.328;2023-11-19T01:05:58;4.90;29.90
47576;DHT22;33304;52.456;13.328;2023-11-19T01:08:28;4.90;29.80
47576;DHT22;33304;52.456;13.328;2023-11-19T01:10:55;4.90;29.20
47576;DHT22;33304;52.456;13.328;2023-11-19T01:13:22;4.90;29.60
47576;DHT22;33304;52.456;13.328;2023-11-19T01:15:51;5.00;29.70
47576;DHT22;33304;52.456;13.328;2023-11-19T01:18:19;5.00;29.20
47576;DHT22;33304;52.456;13.328;2023-11-19T01:20:46;4.90;29.00
47576;DHT22;33304;52.456;13.328;2023-11-19T01:23:13;5.00;29.00
47576;DHT22;33304;52.456;13.328;2023-11-19T01:25:40;4.90;28.70
47576;DHT22;33304;52.456;13.328;2023-11-19T01:28:07;4.90;29.10
47576;DHT22;33304;52.456;13.328;2023-11-19T01:30:34;4.90;29.20
47576;DHT22;33304;52.456;13.328;2023-11-19T01:33:03;4.90;28.90
47576;DHT22;33304;52.456;13.328;2023-11-19T01:35:30;4.90;28.70
47576;DHT22;33304;52.456;13.328;2023-11-19T01:37:57;4.90;29.20
47576;DHT22;33304;52.456;13.328;2023-11-19T01:40:24;5.00;29.00
47576;DHT22;33304;52.456;13.328;2023-11-19T01:42:51;5.00;28.80
47576;DHT22;33304;52.456;13.328;2023-11-19T01:45:27;5.00;29.60
47576;DHT22;33304;52.456;13.328;2023-11-19T01:47:55;5.00;29.40
47576;DHT22;33304;52.456;13.328;2023-11-19T01:50:23;4.90;31.30
47576;DHT22;33304;52.456;13.328;2023-11-19T01:52:52;5.00;31.20
47576;DHT22;33304;52.456;13.328;2023-11-19T01:55:21;5.00;31.70
47576;DHT22;33304;52.456;13.328;2023-11-19T01:57:49;4.90;33.10
47576;DHT22;33304;52.456;13.328;2023-11-19T02:00:17;4.80;35.30
47576;DHT22;33304;52.456;13.328;2023-11-19T02:02:46;4.80;35.10
47576;DHT22;33304;52.456;13.328;2023-11-19T02:05:13;4.80;35.50
47576;DHT22;33304;52.456;13.328;2023-11-19T02:07:42;4.80;36.30
47576;DHT22;33304;52.456;13.328;2023-11-19T02:10:09;4.80;36.80
47576;DHT22;33304;52.456;13.328;2023-11-19T02:12:40;4.80;34.90
47576;DHT22;33304;52.456;13.328;2023-11-19T02:15:09;4.80;36.60
47576;DHT22;33304;52.456;13.328;2023-11-19T02:17:37;4.90;36.00
47576;DHT22;33304;52.456;13.328;2023-11-19T02:20:05;4.90;35.40
47576;DHT22;33304;52.456;13.328;2023-11-19T02:22:35;4.90;35.20
47576;DHT22;33304;52.456;13.328;2023-11-19T02:25:06;5.00;34.00
47576;DHT22;33304;52.456;13.328;2023-11-19T02:27:50;4.90;33.90
47576;DHT22;33304;52.456;13.328;2023-11-19T02:30:18;5.00;34.10
47576;DHT22;33304;52.456;13.328;2023-11-19T02:32:45;5.00;34.20
47576;DHT22;33304;52.456;13.328;2023-11-19T02:35:14;5.00;34.20
47576;DHT22;33304;52.456;13.328;2023-11-19T02:37:41;5.00;33.40
47576;DHT22;33304;52.456;13.328;2023-11-19T02:40:08;5.00;33.60
47576;DHT22;33304;52.456;13.328;2023-11-19T02:42:36;5.10;32.90
47576;DHT22;33304;52.456;13.328;2023-11-19T02:45:05;5.10;33.70
47576;DHT22;33304;52.456;13.328;2023-11-19T02:47:34;5.00;32.60
47576;DHT22;33304;52.456;13.328;2023-11-19T02:50:02;5.10;33.30
47576;DHT22;33304;52.456;13.328;2023-11-19T02:52:29;5.10;32.90
47576;DHT22;33304;52.456;13.328;2023-11-19T02:55:00;5.20;33.20
47576;DHT22;33304;52.456;13.328;2023-11-19T02:57:31;5.20;31.70
47576;DHT22;33304;52.456;13.328;2023-11-19T02:59:58;5.20;33.20
47576;DHT22;33304;52.456;13.328;2023-11-19T03:02:26;5.20;32.20
47576;DHT22;33304;52.456;13.328;2023-11-19T03:04:59;5.10;32.80
47576;DHT22;33304;52.456;13.328;2023-11-19T03:07:28;5.20;32.80
47576;DHT22;33304;52.456;13.328;2023-11-19T03:09:55;5.10;33.00
47576;DHT22;33304;52.456;13.328;2023-11-19T03:12:22;5.10;33.90
47576;DHT22;33304;52.456;13.328;2023-11-19T03:14:49;5.10;33.90
47576;DHT22;33304;52.456;13.328;2023-11-19T03:17:16;5.10;34.80
47576;DHT22;33304;52.456;13.328;2023-11-19T03:19:46;5.10;35.10
47576;DHT22;33304;52.456;13.328;2023-11-19T03:22:14;5.10;35.40
47576;DHT22;33304;52.456;13.328;2023-11-19T03:24:41;5.10;35.60
47576;DHT22;33304;52.456;13.328;2023-11-19T03:27:08;5.10;36.10
47576;DHT22;33304;52.456;13.328;2023-11-19T03:29:36;5.10;38.00
47576;DHT22;33304;52.456;13.328;2023-11-19T03:32:05;5.10;40.00
47576;DHT22;33304;52.456;13.328;2023-11-19T03:34:32;5.10;44.30
47576;DHT22;33304;52.456;13.328;2023-11-19T03:37:00;5.10;49.70
47576;DHT22;33304;52.456;13.328;2023-11-19T03:39:28;5.00;56.70
47576;DHT22;33304;52.456;13.328;2023-11-19T03:41:56;4.90;74.80
47576;DHT22;33304;52.456;13.328;2023-11-19T03:44:23;4.90;91.30
47576;DHT22;33304;52.456;13.328;2023-11-19T03:46:52;4.80;99.90
47576;DHT22;33304;52.456;13.328;2023-11-19T03:49:19;4.70;99.90
47576;DHT22;33304;52.456;13.328;2023-11-19T03:51:46;4.60;99.90
47576;DHT22;33304;52.456;13.328;2023-11-19T03:54:15;4.60;99.90
47576;DHT22;33304;52.456;13.328;2023-11-19T03:56:42;4.60;99.90
47576;DHT22;33304;52.456;13.328;2023-11-19T03:59:09;4.60;99.90
47576;DHT22;33304;52.456;13.328;2023-11-19T04:01:36;4.70;99.90
47576;DHT22;33304;52.456;13.328;2023-11-19T04:04:04;4.60;99.90
47576;DHT22;33304;52.456;13.328;2023-11-19T04:06:32;4.70;99.90
47576;DHT22;33304;52.456;13.328;2023-11-19T04:08:59;4.70;99.90
47576;DHT22;33304;52.456;13.328;2023-11-19T04:11:27;4.60;99.90
47576;DHT22;33304;52.456;13.328;2023-11-19T04:13:55;4.70;99.90
47576;DHT22;33304;52.456;13.328;2023-11-19T04:16:26;4.50;99.90
47576;DHT22;33304;52.456;13.328;2023-11-19T04:18:53;4.60;99.90
47576;DHT22;33304;52.456;13.328;2023-11-19T04:21:21;4.60;99.90
47576;DHT22;33304;52.456;13.328;2023-11-19T04:23:49;4.60;99.90
47576;DHT22;33304;52.456;13.328;2023-11-19T04:26:16;4.60;99.90
47576;DHT22;33304;52.456;13.328;2023-11-19T04:28:45;4.60;99.90
47576;DHT22;33304;52.456;13.328;2023-11-19T04:31:12;4.60;99.90
47576;DHT22;33304;52.456;13.328;2023-11-19T04:33:39;4.60;99.90
47576;DHT22;33304;52.456;13.328;2023-11-19T04:36:07;4.50;99.90
47576;DHT22;33304;52.456;13.328;2023-11-19T04:38:34;4.60;99.90
47576;DHT22;33304;52.456;13.328;2023-11-19T04:41:01;4.60;99.90
47576;DHT22;33304;52.456;13.328;2023-11-19T04:43:29;4.70;99.90
47576;DHT22;33304;52.456;13.328;2023-11-19T04:45:58;4.70;99.90
47576;DHT22;33304;52.456;13.328;2023-11-19T04:48:25;4.70;99.90
47576;DHT22;33304;52.456;13.328;2023-11-19T04:50:52;4.60;99.90
47576;DHT22;33304;52.456;13.328;2023-11-19T04:53:20;4.60;99.90
47576;DHT22;33304;52.456;13.328;2023-11-19T04:55:47;4.50;99.90
47576;DHT22;33304;52.456;13.328;2023-11-19T04:58:14;4.50;99.90
47576;DHT22;33304;52.456;13.328;2023-11-19T05:00:42;4.50;99.90
47576;DHT22;33304;52.456;13.328;2023-11-19T05:03:10;4.50;99.90
47576;DHT22;33304;52.456;13.328;2023-11-19T05:05:37;4.50;99.90
47576;DHT22;33304;52.456;13.328;2023-11-19T05:08:04;4.60;99.90
47576;DHT22;33304;52.456;13.328;2023-11-19T05:10:31;4.60;99.90
47576;DHT22;33304;52.456;13.328;2023-11-19T05:12:58;4.50;99.90
47576;DHT22;33304;52.456;13.328;2023-11-19T05:15:25;4.50;99.90
47576;DHT22;33304;52.456;13.328;2023-11-19T05:17:52;4.50;99.90
47576;DHT22;33304;52.456;13.328;2023-11-19T05:20:21;4.50;99.90
47576;DHT22;33304;52.456;13.328;2023-11-19T05:22:49;4.50;99.90
47576;DHT22;33304;52.456;13.328;2023-11-19T05:25:17;4.50;99.90
47576;DHT22;33304;52.456;13.328;2023-11-19T05:27:46;4.60;99.90
47576;DHT22;33304;52.456;13.328;2023-11-19T05:30:13;4.50;99.90
47576;DHT22;33304;52.456;13.328;2023-11-19T05:32:40;4.60;99.90
47576;DHT22;33304;52.456;13.328;2023-11-19T05:35:07;4.60;99.90
47576;DHT22;33304;52.456;13.328;2023-11-19T05:37:36;4.60;99.90
47576;DHT22;33304;52.456;13.328;2023-11-19T05:40:05;4.60;99.90
47576;DHT22;33304;52.456;13.328;2023-11-19T05:42:38;4.60;99.90
47576;DHT22;33304;52.456;13.328;2023-11-19T05:45:06;4.70;99.90
47576;DHT22;33304;52.456;13.328;2023-11-19T05:47:34;4.60;99.90
47576;DHT22;33304;52.456;13.328;2023-11-19T05:50:01;4.60;99.90
47576;DHT22;33304;52.456;13.328;2023-11-19T05:52:28;4.60;99.90
47576;DHT22;33304;52.456;13.328;2023-11-19T05:55:00;4.70;99.90
47576;DHT22;33304;52.456;13.328;2023-11-19T05:57:30;4.70;99.90
47576;DHT22;33304;52.456;13.328;2023-11-19T05:59:57;4.70;99.90
47576;DHT22;33304;52.456;13.328;2023-11-19T06:02:25;4.70;99.90
47576;DHT22;33304;52.456;13.328;2023-11-19T06:04:53;4.70;99.90
47576;DHT22;33304;52.456;13.328;2023-11-19T06:07:20;4.70;99.90
47576;DHT22;33304;52.456;13.328;2023-11-19T06:09:47;4.70;99.90
47576;DHT22;33304;52.456;13.328;2023-11-19T06:12:15;4.70;99.90
47576;DHT22;33304;52.456;13.328;2023-11-19T06:14:42;4.70;99.90
47576;DHT22;33304;52.456;13.328;2023-11-19T06:17:09;4.80;99.90
47576;DHT22;33304;52.456;13.328;2023-11-19T06:19:37;4.80;99.90
47576;DHT22;33304;52.456;13.328;2023-11-19T06:22:04;4.80;99.90
47576;DHT22;33304;52.456;13.328;2023-11-19T06:24:32;4.80;99.90
47576;DHT22;33304;52.456;13.328;2023-11-19T06:26:59;4.80;99.90
47576;DHT22;33304;52.456;13.328;2023-11-19T06:29:27;4.80;99.90
47576;DHT22;33304;52.456;13.328;2023-11-19T06:31:55;4.80;99.90
47576;DHT22;33304;52.456;13.328;2023-11-19T06:34:23;4.90;99.90
47576;DHT22;33304;52.456;13.328;2023-11-19T06:36:50;4.90;99.90
47576;DHT22;33304;52.456;13.328;2023-11-19T06:39:17;4.90;99.90
47576;DHT22;33304;52.456;13.328;2023-11-19T06:41:45;5.00;99.90
47576;DHT22;33304;52.456;13.328;2023-11-19T06:44:12;4.90;99.90
47576;DHT22;33304;52.456;13.328;2023-11-19T06:46:40;5.00;99.90
47576;DHT22;33304;52.456;13.328;2023-11-19T06:49:07;4.90;99.90
47576;DHT22;33304;52.456;13.328;2023-11-19T06:51:34;5.00;99.90
47576;DHT22;33304;52.456;13.328;2023-11-19T06:54:02;5.00;99.90
47576;DHT22;33304;52.456;13.328;2023-11-19T06:56:29;5.00;99.90
47576;DHT22;33304;52.456;13.328;2023-11-19T06:58:56;5.00;99.90
47576;DHT22;33304;52.456;13.328;2023-11-19T07:01:23;5.00;99.90
47576;DHT22;33304;52.456;13.328;2023-11-19T07:03:51;4.90;99.90
47576;DHT22;33304;52.456;13.328;2023-11-19T07:06:19;5.00;99.90
47576;DHT22;33304;52.456;13.328;2023-11-19T07:08:46;5.10;99.90
47576;DHT22;33304;52.456;13.328;2023-11-19T07:11:13;5.10;99.90
47576;DHT22;33304;52.456;13.328;2023-11-19T07:13:42;5.10;99.90
47576;DHT22;33304;52.456;13.328;2023-11-19T07:16:09;5.10;99.90
47576;DHT22;33304;52.456;13.328;2023-11-19T07:18:36;5.20;99.90
47576;DHT22;33304;52.456;13.328;2023-11-19T07:21:06;5.20;99.90
47576;DHT22;33304;52.456;13.328;2023-11-19T07:23:36;5.20;99.90
47576;DHT22;33304;52.456;13.328;2023-11-19T07:26:05;5.20;99.90
47576;DHT22;33304;52.456;13.328;2023-11-19T07:28:34;5.20;99.90
47576;DHT22;33304;52.456;13.328;2023-11-19T07:31:01;5.30;99.90
47576;DHT22;33304;52.456;13.328;2023-11-19T07:33:28;5.30;99.90
47576;DHT22;33304;52.456;13.328;2023-11-19T07:35:55;5.30;99.90
47576;DHT22;33304;52.456;13.328;2023-11-19T07:38:24;5.50;99.90
47576;DHT22;33304;52.456;13.328;2023-11-19T07:40:51;5.40;99.90
47576;DHT22;33304;52.456;13.328;2023-11-19T07:43:18;5.40;99.90
47576;DHT22;33304;52.456;13.328;2023-11-19T07:45:45;5.40;99.90
47576;DHT22;33304;52.456;13.328;2023-11-19T07:48:12;5.40;99.90
47576;DHT22;33304;52.456;13.328;2023-11-19T07:50:39;5.50;99.90
47576;DHT22;33304;52.456;13.328;2023-11-19T07:53:07;5.60;99.90
47576;DHT22;33304;52.456;13.328;2023-11-19T07:55:36;5.60;99.90
47576;DHT22;33304;52.456;13.328;2023-11-19T07:58:03;5.60;99.90
47576;DHT22;33304;52.456;13.328;2023-11-19T08:00:30;5.50;99.90
47576;DHT22;33304;52.456;13.328;2023-11-19T08:02:57;5.60;99.90
47576;DHT22;33304;52.456;13.328;2023-11-19T08:05:24;5.60;99.90
47576;DHT22;33304;52.456;13.328;2023-11-19T08:07:51;5.70;99.90
47576;DHT22;33304;52.456;13.328;2023-11-19T08:10:18;5.70;99.90
47576;DHT22;33304;52.456;13.328;2023-11-19T08:12:47;5.80;99.90
47576;DHT22;33304;52.456;13.328;2023-11-19T08:15:14;5.80;99.90
47576;DHT22;33304;52.456;13.328;2023-11-19T08:17:41;5.80;99.90
47576;DHT22;33304;52.456;13.328;2023-11-19T08:20:09;5.80;99.90
47576;DHT22;33304;52.456;13.328;2023-11-19T08:22:37;5.90;99.90
47576;DHT22;33304;52.456;13.328;2023-11-19T08:25:04;6.00;99.90
47576;DHT22;33304;52.456;13.328;2023-11-19T08:27:32;6.10;99.90
47576;DHT22;33304;52.456;13.328;2023-11-19T08:30:00;6.10;99.90
47576;DHT22;33304;52.456;13.328;2023-11-19T08:32:27;6.20;99.90
47576;DHT22;33304;52.456;13.328;2023-11-19T08:34:54;6.20;99.90
47576;DHT22;33304;52.456;13.328;2023-11-19T08:37:21;6.30;99.90
47576;DHT22;33304;52.456;13.328;2023-11-19T08:39:49;6.30;99.90
47576;DHT22;33304;52.456;13.328;2023-11-19T08:42:17;6.30;99.90
47576;DHT22;33304;52.456;13.328;2023-11-19T08:44:44;6.40;99.90
47576;DHT22;33304;52.456;13.328;2023-11-19T08:47:17;6.60;99.90
47576;DHT22;33304;52.456;13.328;2023-11-19T08:49:44;6.60;99.90
47576;DHT22;33304;52.456;13.328;2023-11-19T08:52:12;6.70;99.90
47576;DHT22;33304;52.456;13.328;2023-11-19T08:54:42;6.80;99.90
47576;DHT22;33304;52.456;13.328;2023-11-19T08:57:09;6.90;99.90
47576;DHT22;33304;52.456;13.328;2023-11-19T08:59:36;6.90;99.90
47576;DHT22;33304;52.456;13.328;2023-11-19T09:02:04;7.00;99.90
47576;DHT22;33304;52.456;13.328;2023-11-19T09:04:33;7.00;99.90
47576;DHT22;33304;52.456;13.328;2023-11-19T09:07:01;7.10;99.90
47576;DHT22;33304;52.456;13.328;2023-11-19T09:09:29;7.10;99.90
47576;DHT22;33304;52.456;13.328;2023-11-19T09:11:56;7.30;99.90
47576;DHT22;33304;52.456;13.328;2023-11-19T09:14:23;7.30;99.90
47576;DHT22;33304;52.456;13.328;2023-11-19T09:16:51;7.30;99.90
47576;DHT22;33304;52.456;13.328;2023-11-19T09:19:19;7.40;99.90
47576;DHT22;33304;52.456;13.328;2023-11-19T09:21:47;7.40;99.90
47576;DHT22;33304;52.456;13.328;2023-11-19T09:24:15;7.50;99.90
47576;DHT22;33304;52.456;13.328;2023-11-19T09:26:42;7.60;99.90
47576;DHT22;33304;52.456;13.328;2023-11-19T09:29:09;7.70;99.90
47576;DHT22;33304;52.456;13.328;2023-11-19T09:31:38;7.80;99.90
47576;DHT22;33304;52.456;13.328;2023-11-19T09:34:05;7.90;99.90
47576;DHT22;33304;52.456;13.328;2023-11-19T09:36:32;8.00;99.90
47576;DHT22;33304;52.456;13.328;2023-11-19T09:39:00;8.30;99.90
47576;DHT22;33304;52.456;13.328;2023-11-19T09:41:29;8.40;99.90
47576;DHT22;33304;52.456;13.328;2023-11-19T09:43:57;8.50;99.90
47576;DHT22;33304;52.456;13.328;2023-11-19T09:46:25;8.60;99.90
47576;DHT22;33304;52.456;13.328;2023-11-19T09:48:53;8.70;99.90
47576;DHT22;33304;52.456;13.328;2023-11-19T09:51:21;8.80;99.90
47576;DHT22;33304;52.456;13.328;2023-11-19T09:53:49;8.80;99.90
47576;DHT22;33304;52.456;13.328;2023-11-19T09:56:18;8.90;99.90
47576;DHT22;33304;52.456;13.328;2023-11-19T09:58:46;9.00;99.90
47576;DHT22;33304;52.456;13.328;2023-11-19T10:01:14;9.10;99.90
47576;DHT22;33304;52.456;13.328;2023-11-19T10:03:41;9.20;99.90
47576;DHT22;33304;52.456;13.328;2023-11-19T10:06:10;9.30;99.90
47576;DHT22;33304;52.456;13.328;2023-11-19T10:08:38;9.30;99.90
47576;DHT22;33304;52.456;13.328;2023-11-19T10:11:06;9.40;99.90
47576;DHT22;33304;52.456;13.328;2023-11-19T10:13:35;9.40;99.90
47576;DHT22;33304;52.456;13.328;2023-11-19T10:16:07;9.50;99.90
47576;DHT22;33304;52.456;13.328;2023-11-19T10:18:35;9.50;99.90
47576;DHT22;33304;52.456;13.328;2023-11-19T10:21:04;9.60;99.90
47576;DHT22;33304;52.456;13.328;2023-11-19T10:23:48;9.70;99.90
47576;DHT22;33304;52.456;13.328;2023-11-19T10:26:15;9.90;99.90
47576;DHT22;33304;52.456;13.328;2023-11-19T10:28:45;9.80;99.90
47576;DHT22;33304;52.456;13.328;2023-11-19T10:31:13;10.00;99.90
47576;DHT22;33304;52.456;13.328;2023-11-19T10:33:40;10.10;99.90
47576;DHT22;33304;52.456;13.328;2023-11-19T10:36:08;10.20;99.90
47576;DHT22;33304;52.456;13.328;2023-11-19T10:38:35;10.30;99.90
47576;DHT22;33304;52.456;13.328;2023-11-19T10:41:03;10.40;99.90
47576;DHT22;33304;52.456;13.328;2023-11-19T10:43:31;10.50;99.90
47576;DHT22;33304;52.456;13.328;2023-11-19T10:46:11;10.60;99.90
47576;DHT22;33304;52.456;13.328;2023-11-19T10:48:38;10.70;99.90
47576;DHT22;33304;52.456;13.328;2023-11-19T10:51:07;10.80;99.90
47576;DHT22;33304;52.456;13.328;2023-11-19T10:53:37;10.70;99.90
47576;DHT22;33304;52.456;13.328;2023-11-19T10:56:09;10.70;99.90
47576;DHT22;33304;52.456;13.328;2023-11-19T10:58:38;10.70;99.90
47576;DHT22;33304;52.456;13.328;2023-11-19T11:01:18;10.60;99.90
47576;DHT22;33304;52.456;13.328;2023-11-19T11:03:47;10.80;99.90
47576;DHT22;33304;52.456;13.328;2023-11-19T11:06:17;10.90;99.90
47576;DHT22;33304;52.456;13.328;2023-11-19T11:08:46;10.90;99.90
47576;DHT22;33304;52.456;13.328;2023-11-19T11:11:15;11.10;99.90
47576;DHT22;33304;52.456;13.328;2023-11-19T11:13:44;11.10;99.90
47576;DHT22;33304;52.456;13.328;2023-11-19T11:16:14;11.10;99.90
47576;DHT22;33304;52.456;13.328;2023-11-19T11:18:42;11.10;98.50
47576;DHT22;33304;52.456;13.328;2023-11-19T11:21:11;11.10;97.80
47576;DHT22;33304;52.456;13.328;2023-11-19T11:24:03;11.10;97.10
47576;DHT22;33304;52.456;13.328;2023-11-19T11:26:57;11.10;96.00
47576;DHT22;33304;52.456;13.328;2023-11-19T11:29:37;11.10;94.80
47576;DHT22;33304;52.456;13.328;2023-11-19T11:32:26;11.10;94.40
47576;DHT22;33304;52.456;13.328;2023-11-19T11:35:12;11.20;94.80
47576;DHT22;33304;52.456;13.328;2023-11-19T11:37:45;11.30;97.40
47576;DHT22;33304;52.456;13.328;2023-11-19T11:40:14;11.30;96.80
47576;DHT22;33304;52.456;13.328;2023-11-19T11:42:42;11.50;96.60
47576;DHT22;33304;52.456;13.328;2023-11-19T11:45:10;11.50;94.10
47576;DHT22;33304;52.456;13.328;2023-11-19T11:48:07;11.70;85.00
47576;DHT22;33304;52.456;13.328;2023-11-19T11:50:46;11.90;73.60
47576;DHT22;33304;52.456;13.328;2023-11-19T11:53:18;12.10;68.90
47576;DHT22;33304;52.456;13.328;2023-11-19T11:55:54;12.30;62.20
47576;DHT22;33304;52.456;13.328;2023-11-19T11:58:26;12.20;57.90
47576;DHT22;33304;52.456;13.328;2023-11-19T12:00:53;12.20;56.30
47576;DHT22;33304;52.456;13.328;2023-11-19T12:03:22;12.10;56.90
47576;DHT22;33304;52.456;13.328;2023-11-19T12:05:50;12.10;54.60
47576;DHT22;33304;52.456;13.328;2023-11-19T12:08:19;12.10;56.40
47576;DHT22;33304;52.456;13.328;2023-11-19T12:10:48;12.00;59.00
47576;DHT22;33304;52.456;13.328;2023-11-19T12:13:17;12.00;58.30
47576;DHT22;33304;52.456;13.328;2023-11-19T12:16:07;11.90;56.10
47576;DHT22;33304;52.456;13.328;2023-11-19T12:18:35;12.00;56.20
47576;DHT22;33304;52.456;13.328;2023-11-19T12:21:02;11.90;56.10
47576;DHT22;33304;52.456;13.328;2023-11-19T12:23:32;11.90;58.00
47576;DHT22;33304;52.456;13.328;2023-11-19T12:25:59;11.90;59.90
47576;DHT22;33304;52.456;13.328;2023-11-19T12:28:26;11.90;56.90
47576;DHT22;33304;52.456;13.328;2023-11-19T12:30:53;11.90;56.10
47576;DHT22;33304;52.456;13.328;2023-11-19T12:33:20;11.90;56.10
47576;DHT22;33304;52.456;13.328;2023-11-19T12:35:49;11.80;57.70
47576;DHT22;33304;52.456;13.328;2023-11-19T12:38:19;11.70;60.40
47576;DHT22;33304;52.456;13.328;2023-11-19T12:40:47;11.60;66.80
47576;DHT22;33304;52.456;13.328;2023-11-19T12:43:21;11.60;66.70
47576;DHT22;33304;52.456;13.328;2023-11-19T12:45:49;11.60;65.50
47576;DHT22;33304;52.456;13.328;2023-11-19T12:48:16;11.60;63.10
47576;DHT22;33304;52.456;13.328;2023-11-19T12:50:54;11.70;60.50
47576;DHT22;33304;52.456;13.328;2023-11-19T12:53:22;11.70;55.90
47576;DHT22;33304;52.456;13.328;2023-11-19T12:55:50;11.70;56.00
47576;DHT22;33304;52.456;13.328;2023-11-19T12:58:35;11.80;52.60
47576;DHT22;33304;52.456;13.328;2023-11-19T13:01:03;11.80;52.60
47576;DHT22;33304;52.456;13.328;2023-11-19T13:03:32;11.80;52.50
47576;DHT22;33304;52.456;13.328;2023-11-19T13:06:05;11.80;50.60
47576;DHT22;33304;52.456;13.328;2023-11-19T13:08:37;11.80;48.10
47576;DHT22;33304;52.456;13.328;2023-11-19T13:11:05;11.70;48.90
47576;DHT22;33304;52.456;13.328;2023-11-19T13:13:33;11.80;49.40
47576;DHT22;33304;52.456;13.328;2023-11-19T13:16:16;11.70;50.40
47576;DHT22;33304;52.456;13.328;2023-11-19T13:18:44;11.80;50.20
47576;DHT22;33304;52.456;13.328;2023-11-19T13:21:12;11.80;48.40
47576;DHT22;33304;52.456;13.328;2023-11-19T13:23:40;11.80;47.90
47576;DHT22;33304;52.456;13.328;2023-11-19T13:26:07;12.00;46.50
47576;DHT22;33304;52.456;13.328;2023-11-19T13:28:34;12.20;47.60
47576;DHT22;33304;52.456;13.328;2023-11-19T13:31:01;12.30;42.20
47576;DHT22;33304;52.456;13.328;2023-11-19T13:33:28;12.30;40.40
47576;DHT22;33304;52.456;13.328;2023-11-19T13:35:56;12.20;41.30
47576;DHT22;33304;52.456;13.328;2023-11-19T13:38:24;12.10;42.30
47576;DHT22;33304;52.456;13.328;2023-11-19T13:40:52;12.00;43.30
47576;DHT22;33304;52.456;13.328;2023-11-19T13:43:19;12.00;43.40
47576;DHT22;33304;52.456;13.328;2023-11-19T13:45:46;12.00;43.70
47576;DHT22;33304;52.456;13.328;2023-11-19T13:48:13;11.90;44.90
47576;DHT22;33304;52.456;13.328;2023-11-19T13:50:40;11.80;44.90
47576;DHT22;33304;52.456;13.328;2023-11-19T13:53:08;11.90;44.90
47576;DHT22;33304;52.456;13.328;2023-11-19T13:55:36;11.90;45.80
47576;DHT22;33304;52.456;13.328;2023-11-19T13:58:04;11.90;48.50
47576;DHT22;33304;52.456;13.328;2023-11-19T14:00:31;11.70;48.90
47576;DHT22;33304;52.456;13.328;2023-11-19T14:02:58;11.70;50.00
47576;DHT22;33304;52.456;13.328;2023-11-19T14:05:25;11.80;51.10
47576;DHT22;33304;52.456;13.328;2023-11-19T14:07:53;11.70;51.60
47576;DHT22;33304;52.456;13.328;2023-11-19T14:10:22;11.60;53.40
47576;DHT22;33304;52.456;13.328;2023-11-19T14:12:51;11.70;54.20
47576;DHT22;33304;52.456;13.328;2023-11-19T14:15:18;11.60;55.80
47576;DHT22;33304;52.456;13.328;2023-11-19T14:17:45;11.50;55.70
47576;DHT22;33304;52.456;13.328;2023-11-19T14:20:12;11.50;55.70
47576;DHT22;33304;52.456;13.328;2023-11-19T14:22:42;11.60;53.60
47576;DHT22;33304;52.456;13.328;2023-11-19T14:25:10;11.60;53.30
47576;DHT22;33304;52.456;13.328;2023-11-19T14:27:37;11.60;52.10
47576;DHT22;33304;52.456;13.328;2023-11-19T14:30:08;11.60;49.30
47576;DHT22;33304;52.456;13.328;2023-11-19T14:32:37;11.60;47.40
47576;DHT22;33304;52.456;13.328;2023-11-19T14:35:05;11.60;44.60
47576;DHT22;33304;52.456;13.328;2023-11-19T14:37:32;11.70;44.70
47576;DHT22;33304;52.456;13.328;2023-11-19T14:40:00;11.70;44.70
47576;DHT22;33304;52.456;13.328;2023-11-19T14:42:28;11.70;44.70
47576;DHT22;33304;52.456;13.328;2023-11-19T14:44:56;11.60;44.60
47576;DHT22;33304;52.456;13.328;2023-11-19T14:47:24;11.60;44.60
47576;DHT22;33304;52.456;13.328;2023-11-19T14:49:51;11.60;43.80
47576;DHT22;33304;52.456;13.328;2023-11-19T14:52:18;11.60;44.60
47576;DHT22;33304;52.456;13.328;2023-11-19T14:54:45;11.60;42.60
47576;DHT22;33304;52.456;13.328;2023-11-19T14:57:12;11.50;44.50
47576;DHT22;33304;52.456;13.328;2023-11-19T14:59:40;11.50;44.50
47576;DHT22;33304;52.456;13.328;2023-11-19T15:02:07;11.40;46.30
47576;DHT22;33304;52.456;13.328;2023-11-19T15:04:35;11.40;46.60
47576;DHT22;33304;52.456;13.328;2023-11-19T15:07:03;11.40;49.50
47576;DHT22;33304;52.456;13.328;2023-11-19T15:09:30;11.30;50.10
47576;DHT22;33304;52.456;13.328;2023-11-19T15:11:58;11.30;52.40
47576;DHT22;33304;52.456;13.328;2023-11-19T15:14:25;11.20;55.30
47576;DHT22;33304;52.456;13.328;2023-11-19T15:16:52;11.20;55.50
47576;DHT22;33304;52.456;13.328;2023-11-19T15:19:19;11.20;56.20
47576;DHT22;33304;52.456;13.328;2023-11-19T15:21:48;11.20;58.40
47576;DHT22;33304;52.456;13.328;2023-11-19T15:24:15;11.10;62.20
47576;DHT22;33304;52.456;13.328;2023-11-19T15:27:08;11.00;68.80
47576;DHT22;33304;52.456;13.328;2023-11-19T15:29:37;11.00;70.80
47576;DHT22;33304;52.456;13.328;2023-11-19T15:32:06;11.00;71.70
47576;DHT22;33304;52.456;13.328;2023-11-19T15:34:33;11.00;74.60